Time;durP1;ratioP1;P1;durP2;ratioP2;P2;SDS_P1;SDS_P2;PMS_P1;PMS_P2;Temp;Humidity;BMP_temperature;BMP_pressure;BME280_temperature;BME280_humidity;BME280_pressure;Samples;Min_cycle;Max_cycle;Signal;HPM_P1;HPM_P2
2023/08/21 00:01:47;;;;;;;4.50;4.10;;;;;;;;;;5094430;28;20265;-75
2023/08/21 00:04:14;;;;;;;4.80;4.27;;;;;;;;;;5094566;28;20745;-75
2023/08/21 00:06:41;;;;;;;4.43;4.03;;;;;;;;;;5094211;28;20220;-76
2023/08/21 00:09:08;;;;;;;5.07;3.93;;;;;;;;;;5094431;28;20586;-75
2023/08/21 00:11:34;;;;;;;4.27;3.87;;;;;;;;;;5094074;28;20208;-75
2023/08/21 00:14:01;;;;;;;5.90;4.90;;;;;;;;;;5093043;28;20197;-75
2023/08/21 00:16:30;;;;;;;4.40;3.77;;;;;;;;;;5094433;28;20261;-76
2023/08/21 00:18:57;;;;;;;4.80;4.37;;;;;;;;;;5094082;28;20591;-75
2023/08/21 00:21:24;;;;;;;6.93;4.50;;;;;;;;;;5093960;28;20192;-75
2023/08/21 00:23:51;;;;;;;7.87;4.13;;;;;;;;;;5094501;28;20245;-76
2023/08/21 00:26:17;;;;;;;4.10;3.30;;;;;;;;;;5093876;28;20200;-75
2023/08/21 00:28:44;;;;;;;5.67;4.07;;;;;;;;;;5093942;28;20253;-75
2023/08/21 00:31:11;;;;;;;10.97;4.60;;;;;;;;;;5093813;28;20674;-75
2023/08/21 00:33:39;;;;;;;4.20;3.80;;;;;;;;;;5093817;28;20675;-75
2023/08/21 00:36:06;;;;;;;4.10;3.70;;;;;;;;;;5093558;28;20659;-76
2023/08/21 00:38:33;;;;;;;4.23;3.53;;;;;;;;;;5094066;28;21134;-75
2023/08/21 00:41:00;;;;;;;7.27;3.40;;;;;;;;;;5094039;28;20574;-75
2023/08/21 00:43:26;;;;;;;4.23;3.40;;;;;;;;;;5092537;28;20200;-75
2023/08/21 00:45:53;;;;;;;5.93;4.37;;;;;;;;;;5094659;28;20558;-75
2023/08/21 00:48:20;;;;;;;8.20;4.17;;;;;;;;;;5093986;28;20228;-75
2023/08/21 00:50:49;;;;;;;4.53;3.63;;;;;;;;;;5093244;28;20208;-75
2023/08/21 00:53:16;;;;;;;6.73;3.70;;;;;;;;;;5093504;28;20257;-75
2023/08/21 00:55:43;;;;;;;3.77;3.47;;;;;;;;;;5092506;28;20564;-75
2023/08/21 00:58:11;;;;;;;3.97;3.53;;;;;;;;;;5093277;28;20196;-75
2023/08/21 01:00:38;;;;;;;6.50;4.13;;;;;;;;;;5093224;28;20228;-75
2023/08/21 01:03:05;;;;;;;5.50;3.53;;;;;;;;;;5093140;28;20203;-75
2023/08/21 01:05:32;;;;;;;5.03;3.23;;;;;;;;;;5093680;28;20203;-75
2023/08/21 01:08:03;;;;;;;5.03;3.90;;;;;;;;;;5093449;28;20223;-75
2023/08/21 01:10:42;;;;;;;6.80;3.63;;;;;;;;;;5093050;28;20287;-75
2023/08/21 01:13:15;;;;;;;3.63;3.33;;;;;;;;;;5093118;28;20195;-75
2023/08/21 01:15:42;;;;;;;4.37;3.77;;;;;;;;;;5093035;28;20193;-75
2023/08/21 01:18:10;;;;;;;6.60;4.00;;;;;;;;;;5093488;28;20200;-75
2023/08/21 01:20:36;;;;;;;4.10;3.57;;;;;;;;;;5092821;28;20204;-75
2023/08/21 01:23:06;;;;;;;3.73;3.33;;;;;;;;;;5092869;28;20200;-75
2023/08/21 01:25:35;;;;;;;3.93;3.63;;;;;;;;;;5093116;28;20192;-76
2023/08/21 01:28:02;;;;;;;5.00;3.73;;;;;;;;;;5092437;28;20220;-76
2023/08/21 01:30:31;;;;;;;3.90;3.60;;;;;;;;;;5092669;28;20207;-75
2023/08/21 01:33:00;;;;;;;4.30;3.90;;;;;;;;;;5092456;28;20208;-75
2023/08/21 01:35:29;;;;;;;4.47;3.90;;;;;;;;;;5092620;28;20192;-75
2023/08/21 01:37:56;;;;;;;5.67;4.13;;;;;;;;;;5093028;28;20192;-75
2023/08/21 01:40:23;;;;;;;4.67;3.80;;;;;;;;;;5092777;28;20223;-75
2023/08/21 01:42:53;;;;;;;6.30;3.57;;;;;;;;;;5092515;28;20192;-75
2023/08/21 01:45:19;;;;;;;3.63;3.30;;;;;;;;;;5091124;28;20600;-75
2023/08/21 01:47:47;;;;;;;7.87;4.03;;;;;;;;;;5092680;28;20224;-75
2023/08/21 01:50:13;;;;;;;4.93;3.57;;;;;;;;;;5092310;28;20852;-76
2023/08/21 01:52:40;;;;;;;3.80;3.30;;;;;;;;;;5092283;28;20200;-75
2023/08/21 01:55:08;;;;;;;4.57;3.60;;;;;;;;;;5092811;28;20590;-75
2023/08/21 01:57:35;;;;;;;4.37;3.43;;;;;;;;;;5092657;28;20580;-75
2023/08/21 02:00:04;;;;;;;3.67;3.37;;;;;;;;;;5092143;28;20207;-75
2023/08/21 02:02:31;;;;;;;5.23;3.90;;;;;;;;;;5092238;28;20253;-75
2023/08/21 02:04:58;;;;;;;7.70;3.50;;;;;;;;;;5092032;28;20207;-75
2023/08/21 02:07:24;;;;;;;4.00;3.70;;;;;;;;;;5092426;28;20219;-75
2023/08/21 02:09:51;;;;;;;3.57;3.13;;;;;;;;;;5092672;28;20192;-75
2023/08/21 02:12:18;;;;;;;5.67;4.00;;;;;;;;;;5092860;28;20196;-75
2023/08/21 02:14:45;;;;;;;7.03;3.73;;;;;;;;;;5091908;28;20250;-75
2023/08/21 02:17:13;;;;;;;4.17;3.87;;;;;;;;;;5091890;28;20240;-75
2023/08/21 02:19:40;;;;;;;5.37;3.60;;;;;;;;;;5090425;28;20200;-75
2023/08/21 02:22:07;;;;;;;7.03;3.60;;;;;;;;;;5092663;28;20192;-75
2023/08/21 02:24:34;;;;;;;6.67;3.40;;;;;;;;;;5092236;28;20196;-76
2023/08/21 02:27:01;;;;;;;6.97;3.20;;;;;;;;;;5092071;28;20226;-75
2023/08/21 02:29:28;;;;;;;4.77;3.30;;;;;;;;;;5092302;28;20274;-75
2023/08/21 02:31:54;;;;;;;14.87;5.37;;;;;;;;;;5091649;28;20200;-75
2023/08/21 02:34:22;;;;;;;3.57;3.27;;;;;;;;;;5092226;28;20200;-75
2023/08/21 02:36:49;;;;;;;5.57;3.07;;;;;;;;;;5091746;28;20193;-76
2023/08/21 02:39:16;;;;;;;5.23;3.40;;;;;;;;;;5091496;28;20736;-75
2023/08/21 02:41:43;;;;;;;6.67;3.83;;;;;;;;;;5091673;28;20685;-75
2023/08/21 02:44:09;;;;;;;4.23;3.33;;;;;;;;;;5091612;28;20589;-75
2023/08/21 02:46:36;;;;;;;6.20;4.20;;;;;;;;;;5091849;28;20279;-75
2023/08/21 02:49:03;;;;;;;4.13;3.70;;;;;;;;;;5105963;28;20231;-75
2023/08/21 02:51:31;;;;;;;5.20;3.90;;;;;;;;;;5111887;28;20734;-75
2023/08/21 02:53:58;;;;;;;6.10;3.87;;;;;;;;;;5111662;28;20234;-75
2023/08/21 02:56:25;;;;;;;3.87;3.57;;;;;;;;;;5111852;28;20196;-75
2023/08/21 02:58:51;;;;;;;7.13;3.50;;;;;;;;;;5099574;28;20230;-75
2023/08/21 03:01:18;;;;;;;9.10;3.73;;;;;;;;;;5089746;28;20199;-75
2023/08/21 03:03:45;;;;;;;5.23;3.27;;;;;;;;;;5090487;28;20204;-76
2023/08/21 03:06:12;;;;;;;3.57;3.27;;;;;;;;;;5112226;28;20642;-75
2023/08/21 03:08:40;;;;;;;3.90;3.53;;;;;;;;;;5110831;28;20270;-75
2023/08/21 03:11:07;;;;;;;6.07;3.80;;;;;;;;;;5111056;28;20200;-76
2023/08/21 03:13:33;;;;;;;8.43;4.30;;;;;;;;;;5112008;28;20198;-75
2023/08/21 03:16:00;;;;;;;4.97;4.07;;;;;;;;;;5112121;28;20614;-75
2023/08/21 03:18:31;;;;;;;4.23;3.83;;;;;;;;;;5112070;28;20196;-75
2023/08/21 03:20:58;;;;;;;4.53;3.90;;;;;;;;;;5115627;28;20207;-75
2023/08/21 03:23:25;;;;;;;3.87;3.23;;;;;;;;;;5115540;28;20719;-75
2023/08/21 03:25:54;;;;;;;8.67;3.60;;;;;;;;;;5115812;28;20624;-75
2023/08/21 03:28:21;;;;;;;5.07;4.10;;;;;;;;;;5115547;28;20223;-75
2023/08/21 03:30:48;;;;;;;3.93;3.63;;;;;;;;;;5115399;28;20199;-75
2023/08/21 03:33:15;;;;;;;6.47;3.83;;;;;;;;;;5115740;28;20199;-76
2023/08/21 03:35:42;;;;;;;8.70;4.23;;;;;;;;;;5115343;28;20195;-75
2023/08/21 03:38:08;;;;;;;3.80;3.40;;;;;;;;;;5115684;28;20203;-76
2023/08/21 03:40:35;;;;;;;6.27;4.47;;;;;;;;;;5115942;28;20191;-76
2023/08/21 03:43:04;;;;;;;7.60;3.60;;;;;;;;;;5115400;28;20287;-76
2023/08/21 03:45:30;;;;;;;6.77;4.10;;;;;;;;;;5115506;28;20239;-76
2023/08/21 03:47:57;;;;;;;8.80;3.93;;;;;;;;;;5115442;28;20211;-76
2023/08/21 03:50:24;;;;;;;5.77;4.10;;;;;;;;;;5115130;28;20199;-76
2023/08/21 03:52:51;;;;;;;3.93;3.63;;;;;;;;;;5100426;28;20663;-75
2023/08/21 03:55:17;;;;;;;5.40;3.67;;;;;;;;;;5108742;28;20672;-76
2023/08/21 03:57:44;;;;;;;8.60;4.37;;;;;;;;;;5114686;28;20575;-75
2023/08/21 04:00:13;;;;;;;4.97;4.00;;;;;;;;;;5115230;28;20579;-76
2023/08/21 04:02:40;;;;;;;5.20;3.43;;;;;;;;;;5114788;28;20192;-75
2023/08/21 04:05:07;;;;;;;6.57;4.80;;;;;;;;;;5115202;28;20206;-76
2023/08/21 04:07:34;;;;;;;4.10;3.80;;;;;;;;;;5115379;28;20299;-76
2023/08/21 04:10:01;;;;;;;6.07;4.27;;;;;;;;;;5114978;28;20205;-76
2023/08/21 04:12:28;;;;;;;7.70;3.57;;;;;;;;;;5113388;28;20195;-76
2023/08/21 04:14:55;;;;;;;5.57;4.13;;;;;;;;;;5115124;28;20340;-76
2023/08/21 04:17:24;;;;;;;4.33;3.80;;;;;;;;;;5114786;28;20580;-75
2023/08/21 04:19:51;;;;;;;5.47;4.40;;;;;;;;;;5114658;28;20688;-75
2023/08/21 04:22:18;;;;;;;4.17;3.73;;;;;;;;;;5112556;28;20203;-76
2023/08/21 04:24:45;;;;;;;5.87;3.90;;;;;;;;;;5107432;28;20200;-78
2023/08/21 04:27:12;;;;;;;4.70;4.10;;;;;;;;;;5114257;28;20611;-76
2023/08/21 04:29:40;;;;;;;4.07;3.67;;;;;;;;;;5114207;28;20227;-77
2023/08/21 04:32:06;;;;;;;6.60;4.10;;;;;;;;;;5114597;28;20195;-77
2023/08/21 04:34:35;;;;;;;4.77;3.40;;;;;;;;;;5114724;28;20200;-77
2023/08/21 04:37:02;;;;;;;9.67;4.27;;;;;;;;;;5113927;28;20657;-77
2023/08/21 04:39:29;;;;;;;4.50;3.77;;;;;;;;;;5114318;28;20199;-77
2023/08/21 04:41:56;;;;;;;4.23;3.83;;;;;;;;;;5113951;28;20202;-77
2023/08/21 04:44:23;;;;;;;9.73;4.90;;;;;;;;;;5114807;28;20568;-77
2023/08/21 04:46:50;;;;;;;5.17;4.63;;;;;;;;;;5114473;28;20573;-77
2023/08/21 04:49:17;;;;;;;4.00;3.70;;;;;;;;;;5113756;28;20273;-77
2023/08/21 04:51:45;;;;;;;5.30;3.60;;;;;;;;;;5112404;28;20207;-77
2023/08/21 04:54:12;;;;;;;4.10;3.43;;;;;;;;;;5093570;28;20678;-78
2023/08/21 04:56:38;;;;;;;9.13;4.20;;;;;;;;;;5105322;28;20191;-77
2023/08/21 04:59:05;;;;;;;4.30;3.90;;;;;;;;;;5105791;28;20196;-77
2023/08/21 05:01:32;;;;;;;8.40;4.20;;;;;;;;;;5101644;28;20199;-78
2023/08/21 05:03:59;;;;;;;5.63;3.80;;;;;;;;;;5108763;28;20659;-77
2023/08/21 05:06:25;;;;;;;4.27;3.80;;;;;;;;;;5092700;28;20192;-77
2023/08/21 05:08:54;;;;;;;5.13;4.60;;;;;;;;;;5092334;28;20289;-77
2023/08/21 05:11:20;;;;;;;6.40;3.90;;;;;;;;;;5093683;28;20196;-77
2023/08/21 05:13:47;;;;;;;3.70;3.40;;;;;;;;;;5101312;28;20202;-77
2023/08/21 05:16:14;;;;;;;4.70;3.60;;;;;;;;;;5104575;28;20192;-77
2023/08/21 05:18:41;;;;;;;4.73;4.30;;;;;;;;;;5104948;28;20196;-77
2023/08/21 05:21:09;;;;;;;6.67;3.90;;;;;;;;;;5101303;28;20202;-78
2023/08/21 05:23:35;;;;;;;5.17;4.20;;;;;;;;;;5096591;28;20669;-77
2023/08/21 05:26:04;;;;;;;6.40;3.73;;;;;;;;;;5095529;28;20544;-77
2023/08/21 05:28:31;;;;;;;7.30;4.82;;;;;;;;;;5092016;28;20315;-77
2023/08/21 05:30:58;;;;;;;4.40;4.00;;;;;;;;;;5107634;28;20672;-77
2023/08/21 05:33:25;;;;;;;9.50;4.72;;;;;;;;;;5112668;28;20195;-77
2023/08/21 05:35:51;;;;;;;4.78;4.38;;;;;;;;;;5100144;28;20211;-77
2023/08/21 05:38:18;;;;;;;5.90;4.60;;;;;;;;;;5112664;28;20195;-77
2023/08/21 05:40:45;;;;;;;5.77;4.07;;;;;;;;;;5112160;28;20261;-77
2023/08/21 05:43:13;;;;;;;7.03;4.90;;;;;;;;;;5111128;28;20195;-77
2023/08/21 05:45:40;;;;;;;6.18;4.82;;;;;;;;;;5095852;28;20199;-77
2023/08/21 05:48:07;;;;;;;6.97;5.15;;;;;;;;;;5103083;28;20696;-77
2023/08/21 05:50:36;;;;;;;4.43;4.07;;;;;;;;;;5107210;28;20203;-77
2023/08/21 05:53:03;;;;;;;7.47;4.57;;;;;;;;;;5091379;28;20227;-78
2023/08/21 05:55:31;;;;;;;5.15;4.65;;;;;;;;;;5112398;28;20730;-78
2023/08/21 05:57:58;;;;;;;10.52;4.70;;;;;;;;;;5112372;28;20207;-77
2023/08/21 06:00:26;;;;;;;7.07;5.10;;;;;;;;;;5111088;28;20381;-77
2023/08/21 06:02:53;;;;;;;5.00;4.30;;;;;;;;;;5101485;28;20196;-77
2023/08/21 06:05:20;;;;;;;7.60;4.90;;;;;;;;;;5092095;28;20203;-77
2023/08/21 06:07:48;;;;;;;7.97;4.45;;;;;;;;;;5105213;28;20199;-77
2023/08/21 06:10:15;;;;;;;4.88;4.40;;;;;;;;;;5096961;28;20563;-77
2023/08/21 06:12:43;;;;;;;8.90;5.28;;;;;;;;;;5107251;28;20206;-77
2023/08/21 06:15:11;;;;;;;8.10;5.30;;;;;;;;;;5107835;28;20569;-77
2023/08/21 06:17:40;;;;;;;4.53;4.03;;;;;;;;;;5108098;28;20274;-77
2023/08/21 06:20:08;;;;;;;7.10;4.55;;;;;;;;;;5091303;28;20200;-77
2023/08/21 06:22:35;;;;;;;6.20;4.57;;;;;;;;;;5091956;28;20209;-77
2023/08/21 06:25:02;;;;;;;7.50;4.10;;;;;;;;;;5091383;28;20207;-78
2023/08/21 06:27:30;;;;;;;5.90;4.60;;;;;;;;;;5092407;28;20207;-77
2023/08/21 06:29:57;;;;;;;5.28;4.65;;;;;;;;;;5106647;28;20639;-77
2023/08/21 06:32:24;;;;;;;7.40;4.72;;;;;;;;;;5091185;28;20196;-77
2023/08/21 06:34:53;;;;;;;5.05;4.63;;;;;;;;;;5097403;28;20203;-77
2023/08/21 06:37:19;;;;;;;4.93;4.43;;;;;;;;;;5093410;28;20253;-78
2023/08/21 06:39:46;;;;;;;6.55;5.07;;;;;;;;;;5094997;28;20191;-77
2023/08/21 06:42:13;;;;;;;8.65;4.93;;;;;;;;;;5096353;28;20196;-77
2023/08/21 06:44:41;;;;;;;6.38;4.28;;;;;;;;;;5101263;28;20192;-77
2023/08/21 06:47:07;;;;;;;10.38;4.43;;;;;;;;;;5112527;28;20199;-77
2023/08/21 06:49:34;;;;;;;5.45;4.85;;;;;;;;;;5103148;28;20216;-77
2023/08/21 06:52:03;;;;;;;5.88;4.05;;;;;;;;;;5091016;28;20202;-77
2023/08/21 06:54:31;;;;;;;7.47;4.60;;;;;;;;;;5094629;28;20280;-78
2023/08/21 06:56:59;;;;;;;6.88;4.50;;;;;;;;;;5095267;28;20295;-77
2023/08/21 06:59:25;;;;;;;6.95;4.28;;;;;;;;;;5102122;28;20279;-77
2023/08/21 07:01:52;;;;;;;6.45;4.60;;;;;;;;;;5110652;28;20195;-77
2023/08/21 07:04:19;;;;;;;8.60;4.70;;;;;;;;;;5114512;28;20198;-77
2023/08/21 07:06:48;;;;;;;7.18;4.32;;;;;;;;;;5115102;28;20203;-77
2023/08/21 07:09:16;;;;;;;5.30;3.92;;;;;;;;;;5105990;28;20235;-77
2023/08/21 07:11:43;;;;;;;7.72;5.18;;;;;;;;;;5095583;28;20262;-78
2023/08/21 07:14:09;;;;;;;4.45;4.05;;;;;;;;;;5094324;28;20199;-79
2023/08/21 07:16:37;;;;;;;5.38;4.30;;;;;;;;;;5113685;28;20202;-78
2023/08/21 07:19:03;;;;;;;5.28;4.20;;;;;;;;;;5108510;28;20191;-77
2023/08/21 07:21:31;;;;;;;6.43;4.40;;;;;;;;;;5099250;28;20196;-77
2023/08/21 07:23:57;;;;;;;4.72;4.25;;;;;;;;;;5097201;28;20242;-77
2023/08/21 07:26:26;;;;;;;4.38;3.97;;;;;;;;;;5115929;28;20196;-77
2023/08/21 07:28:53;;;;;;;4.75;4.30;;;;;;;;;;5115736;28;20211;-77
2023/08/21 07:31:19;;;;;;;12.50;4.82;;;;;;;;;;5113339;28;20661;-77
2023/08/21 07:33:46;;;;;;;4.47;4.07;;;;;;;;;;5115370;28;20202;-77
2023/08/21 07:36:16;;;;;;;8.35;4.85;;;;;;;;;;5105629;28;20606;-78
2023/08/21 07:38:44;;;;;;;4.18;3.75;;;;;;;;;;5115234;28;20573;-77
2023/08/21 07:41:12;;;;;;;4.63;4.22;;;;;;;;;;5114772;28;20192;-77
2023/08/21 07:43:41;;;;;;;4.72;4.35;;;;;;;;;;5114306;28;20191;-77
2023/08/21 07:46:12;;;;;;;5.00;4.50;;;;;;;;;;5114992;28;20196;-77
2023/08/21 07:48:39;;;;;;;4.40;4.00;;;;;;;;;;5114908;28;20580;-78
2023/08/21 07:51:06;;;;;;;5.25;4.25;;;;;;;;;;5101841;28;20200;-77
2023/08/21 07:53:34;;;;;;;6.22;4.22;;;;;;;;;;5094652;28;20612;-78
2023/08/21 07:56:01;;;;;;;7.07;4.50;;;;;;;;;;5094836;28;20571;-77
2023/08/21 07:58:28;;;;;;;8.25;4.22;;;;;;;;;;5095041;28;20200;-77
2023/08/21 08:00:57;;;;;;;7.00;4.15;;;;;;;;;;5112683;28;20195;-78
2023/08/21 08:03:24;;;;;;;4.35;4.05;;;;;;;;;;5102255;28;20204;-78
2023/08/21 08:05:50;;;;;;;6.70;4.75;;;;;;;;;;5093919;28;20196;-78
2023/08/21 08:08:17;;;;;;;5.47;3.85;;;;;;;;;;5094376;28;20685;-78
2023/08/21 08:10:45;;;;;;;4.88;3.58;;;;;;;;;;5107556;28;20227;-78
2023/08/21 08:13:11;;;;;;;4.65;4.25;;;;;;;;;;5095858;28;20597;-78
2023/08/21 08:15:39;;;;;;;4.93;3.80;;;;;;;;;;5113957;28;20661;-78
2023/08/21 08:18:12;;;;;;;4.40;4.00;;;;;;;;;;5099723;28;20204;-78
2023/08/21 08:20:41;;;;;;;4.28;3.97;;;;;;;;;;5103808;28;20195;-78
2023/08/21 08:23:08;;;;;;;4.13;3.83;;;;;;;;;;5096096;28;20230;-77
2023/08/21 08:25:35;;;;;;;5.90;4.05;;;;;;;;;;5092979;28;20258;-79
2023/08/21 08:28:02;;;;;;;6.60;4.57;;;;;;;;;;5111232;28;20202;-78
2023/08/21 08:30:29;;;;;;;4.13;3.72;;;;;;;;;;5094049;28;20220;-77
2023/08/21 08:32:56;;;;;;;5.75;3.50;;;;;;;;;;5094558;28;20207;-77
2023/08/21 08:35:24;;;;;;;4.40;4.10;;;;;;;;;;5100576;28;20671;-78
2023/08/21 08:37:51;;;;;;;3.78;3.42;;;;;;;;;;5094232;28;20196;-78
2023/08/21 08:40:18;;;;;;;4.85;4.45;;;;;;;;;;5103275;28;20203;-78
2023/08/21 08:42:44;;;;;;;3.92;3.63;;;;;;;;;;5113500;28;20195;-77
2023/08/21 08:45:14;;;;;;;4.10;3.80;;;;;;;;;;5113409;28;20203;-78
2023/08/21 08:47:41;;;;;;;4.40;3.80;;;;;;;;;;5113564;28;20196;-77
2023/08/21 08:50:09;;;;;;;5.32;4.88;;;;;;;;;;5113605;28;20222;-77
2023/08/21 08:52:38;;;;;;;8.50;5.38;;;;;;;;;;5103558;28;20224;-77
2023/08/21 08:55:07;;;;;;;34.85;28.13;;;;;;;;;;5093052;28;20220;-78
2023/08/21 08:57:34;;;;;;;8.77;7.82;;;;;;;;;;5110559;28;20260;-78
2023/08/21 09:00:01;;;;;;;5.63;4.93;;;;;;;;;;5113139;28;20203;-77
2023/08/21 09:02:29;;;;;;;7.95;3.65;;;;;;;;;;5106102;28;20188;-77
2023/08/21 09:04:56;;;;;;;8.73;3.53;;;;;;;;;;5109480;28;20282;-78
2023/08/21 09:07:23;;;;;;;4.78;3.17;;;;;;;;;;5093457;28;20196;-78
2023/08/21 09:09:52;;;;;;;4.10;3.28;;;;;;;;;;5109938;28;20234;-77
2023/08/21 09:12:19;;;;;;;5.10;3.55;;;;;;;;;;5096160;28;20192;-78
2023/08/21 09:14:46;;;;;;;3.83;3.53;;;;;;;;;;5107882;28;20200;-78
2023/08/21 09:17:13;;;;;;;5.82;3.17;;;;;;;;;;5101094;28;20684;-78
2023/08/21 09:19:40;;;;;;;6.25;3.38;;;;;;;;;;5112631;28;20684;-78
2023/08/21 09:22:12;;;;;;;7.22;3.78;;;;;;;;;;5107126;28;20211;-78
2023/08/21 09:24:39;;;;;;;6.45;3.38;;;;;;;;;;5110654;28;20223;-78
2023/08/21 09:27:14;;;;;;;4.22;3.80;;;;;;;;;;5092631;28;20207;-77
2023/08/21 09:29:41;;;;;;;5.78;4.15;;;;;;;;;;5097571;28;20218;-81
2023/08/21 09:32:08;;;;;;;4.68;4.13;;;;;;;;;;5108792;28;20196;-77
2023/08/21 09:34:36;;;;;;;5.47;3.88;;;;;;;;;;5092454;28;20207;-77
2023/08/21 09:37:06;;;;;;;6.60;3.80;;;;;;;;;;5102190;28;20589;-77
2023/08/21 09:39:34;;;;;;;3.45;3.15;;;;;;;;;;5112389;28;20210;-78
2023/08/21 09:42:01;;;;;;;5.35;3.38;;;;;;;;;;5094768;28;20219;-78
2023/08/21 09:44:36;;;;;;;3.92;3.10;;;;;;;;;;5108960;28;20199;-78
2023/08/21 09:47:03;;;;;;;3.95;3.35;;;;;;;;;;5108943;28;20619;-77
2023/08/21 09:49:33;;;;;;;6.45;2.83;;;;;;;;;;5091482;28;20269;-77
2023/08/21 09:52:00;;;;;;;4.00;3.58;;;;;;;;;;5107175;28;20650;-77
2023/08/21 09:54:27;;;;;;;7.22;3.10;;;;;;;;;;5104542;28;20227;-78
2023/08/21 09:56:54;;;;;;;3.35;3.05;;;;;;;;;;5100431;28;21261;-78
2023/08/21 09:59:21;;;;;;;5.55;3.58;;;;;;;;;;5092432;28;20208;-77
2023/08/21 10:01:50;;;;;;;6.50;2.97;;;;;;;;;;5091525;28;20204;-78
2023/08/21 10:04:18;;;;;;;5.43;3.53;;;;;;;;;;5112303;28;20673;-78
2023/08/21 10:06:46;;;;;;;4.70;3.75;;;;;;;;;;5112128;28;20628;-78
2023/08/21 10:09:13;;;;;;;4.28;3.35;;;;;;;;;;5111227;28;20199;-78
2023/08/21 10:11:40;;;;;;;4.90;2.97;;;;;;;;;;5106097;28;20288;-78
2023/08/21 10:14:08;;;;;;;6.07;3.38;;;;;;;;;;5091402;28;20750;-78
2023/08/21 10:16:34;;;;;;;5.45;3.35;;;;;;;;;;5091185;28;20197;-78
2023/08/21 10:19:05;;;;;;;4.80;2.95;;;;;;;;;;5098953;28;20191;-78
2023/08/21 10:21:35;;;;;;;6.20;3.30;;;;;;;;;;5097126;28;20264;-78
2023/08/21 10:24:02;;;;;;;3.25;3.05;;;;;;;;;;5111841;28;20653;-78
2023/08/21 10:26:32;;;;;;;3.85;3.05;;;;;;;;;;5104545;28;20193;-78
2023/08/21 10:29:02;;;;;;;5.22;3.40;;;;;;;;;;5112336;28;20248;-78
2023/08/21 10:31:33;;;;;;;4.35;3.60;;;;;;;;;;5096086;28;20314;-78
2023/08/21 10:34:01;;;;;;;5.65;3.45;;;;;;;;;;5107955;28;20226;-78
2023/08/21 10:37:10;;;;;;;5.45;3.40;;;;;;;;;;5097650;28;20206;-78
2023/08/21 10:39:39;;;;;;;4.68;3.45;;;;;;;;;;5086317;28;20204;-78
2023/08/21 10:42:08;;;;;;;4.28;3.58;;;;;;;;;;5109238;28;20731;-78
2023/08/21 10:44:38;;;;;;;7.22;5.63;;;;;;;;;;5107520;28;20736;-78
2023/08/21 10:47:14;;;;;;;6.70;4.95;;;;;;;;;;5107955;28;20207;-78
2023/08/21 10:49:41;;;;;;;7.20;4.40;;;;;;;;;;5100032;28;20310;-78
2023/08/21 10:52:10;;;;;;;3.88;3.55;;;;;;;;;;5107549;28;20676;-78
2023/08/21 10:54:53;;;;;;;6.90;4.10;;;;;;;;;;5091225;28;20224;-80
2023/08/21 10:57:20;;;;;;;4.18;3.78;;;;;;;;;;5088660;28;20192;-78
2023/08/21 10:59:54;;;;;;;4.43;3.55;;;;;;;;;;5090989;28;20212;-77
2023/08/21 11:02:21;;;;;;;7.35;3.97;;;;;;;;;;5106315;28;20196;-78
2023/08/21 11:04:49;;;;;;;4.45;4.05;;;;;;;;;;5111361;28;20207;-78
2023/08/21 11:07:15;;;;;;;3.80;3.50;;;;;;;;;;5107385;28;20201;-78
2023/08/21 11:09:42;;;;;;;5.38;3.20;;;;;;;;;;5107828;28;20198;-78
2023/08/21 11:12:12;;;;;;;3.42;3.13;;;;;;;;;;5101493;28;20201;-79
2023/08/21 11:14:40;;;;;;;6.00;3.72;;;;;;;;;;5095949;28;20221;-78
2023/08/21 11:17:07;;;;;;;4.43;3.58;;;;;;;;;;5102270;28;20195;-78
2023/08/21 11:19:37;;;;;;;6.60;3.65;;;;;;;;;;5099260;28;20611;-78
2023/08/21 11:22:07;;;;;;;4.88;3.03;;;;;;;;;;5090923;28;20651;-78
2023/08/21 11:24:42;;;;;;;3.85;3.40;;;;;;;;;;5090631;28;20238;-78
2023/08/21 11:27:12;;;;;;;3.75;3.45;;;;;;;;;;5091616;28;20211;-78
2023/08/21 11:29:39;;;;;;;3.72;3.10;;;;;;;;;;5091495;28;20200;-78
2023/08/21 11:32:10;;;;;;;3.80;3.40;;;;;;;;;;5091534;28;20200;-77
2023/08/21 11:34:37;;;;;;;5.50;3.10;;;;;;;;;;5091593;28;20201;-77
2023/08/21 11:37:05;;;;;;;3.45;3.00;;;;;;;;;;5091267;28;20239;-77
2023/08/21 11:39:48;;;;;;;3.28;2.97;;;;;;;;;;5091710;28;20737;-78
2023/08/21 11:42:17;;;;;;;9.68;4.65;;;;;;;;;;5109782;28;20198;-78
2023/08/21 11:44:45;;;;;;;5.50;3.38;;;;;;;;;;5114814;28;20202;-78
2023/08/21 11:47:13;;;;;;;3.63;3.42;;;;;;;;;;5113680;28;20312;-79
2023/08/21 11:49:41;;;;;;;6.35;3.10;;;;;;;;;;5102048;28;20200;-78
2023/08/21 11:52:08;;;;;;;7.72;3.38;;;;;;;;;;5101068;28;20234;-78
2023/08/21 11:54:36;;;;;;;4.07;3.45;;;;;;;;;;5114538;28;20284;-78
2023/08/21 11:57:09;;;;;;;6.68;4.53;;;;;;;;;;5105733;28;20629;-78
2023/08/21 11:59:38;;;;;;;4.68;3.40;;;;;;;;;;5113780;28;20199;-78
2023/08/21 12:02:15;;;;;;;25.25;22.13;;;;;;;;;;5112154;28;20554;-78
2023/08/21 12:04:42;;;;;;;5.07;4.60;;;;;;;;;;5107272;28;20699;-78
2023/08/21 12:07:09;;;;;;;6.47;3.00;;;;;;;;;;5107843;28;20227;-78
2023/08/21 12:09:35;;;;;;;7.55;3.35;;;;;;;;;;5094445;28;20204;-78
2023/08/21 12:12:02;;;;;;;4.32;3.33;;;;;;;;;;5114112;28;20234;-77
2023/08/21 12:14:31;;;;;;;5.85;3.28;;;;;;;;;;5098811;28;20639;-77
2023/08/21 12:16:59;;;;;;;11.20;4.07;;;;;;;;;;5093422;28;20203;-78
2023/08/21 12:19:26;;;;;;;10.25;3.65;;;;;;;;;;5098962;28;20196;-77
2023/08/21 12:21:52;;;;;;;5.35;3.10;;;;;;;;;;5096658;28;20196;-77
2023/08/21 12:24:19;;;;;;;6.53;3.78;;;;;;;;;;5105546;28;20199;-78
2023/08/21 12:26:46;;;;;;;4.18;3.78;;;;;;;;;;5114056;28;20207;-77
2023/08/21 12:29:13;;;;;;;8.38;3.75;;;;;;;;;;5097504;28;20200;-78
2023/08/21 12:31:39;;;;;;;4.53;3.13;;;;;;;;;;5109556;28;20223;-78
2023/08/21 12:34:07;;;;;;;4.28;3.97;;;;;;;;;;5109495;28;20200;-77
2023/08/21 12:36:36;;;;;;;5.50;3.08;;;;;;;;;;5114725;28;20207;-77
2023/08/21 12:39:03;;;;;;;6.15;3.15;;;;;;;;;;5112879;28;20758;-77
2023/08/21 12:41:30;;;;;;;3.63;3.25;;;;;;;;;;5097351;28;20233;-77
2023/08/21 12:43:57;;;;;;;5.97;3.53;;;;;;;;;;5093963;28;20192;-77
2023/08/21 12:46:26;;;;;;;10.80;3.83;;;;;;;;;;5094180;28;20196;-77
2023/08/21 12:48:53;;;;;;;4.55;4.18;;;;;;;;;;5106833;28;20223;-77
2023/08/21 12:51:21;;;;;;;4.82;2.80;;;;;;;;;;5112806;28;20749;-78
2023/08/21 12:53:48;;;;;;;9.88;3.70;;;;;;;;;;5112365;28;20231;-78
2023/08/21 12:56:14;;;;;;;5.18;3.15;;;;;;;;;;5113549;28;20192;-78
2023/08/21 12:58:41;;;;;;;4.07;3.72;;;;;;;;;;5094477;28;20204;-78
2023/08/21 13:01:08;;;;;;;5.22;3.38;;;;;;;;;;5093331;28;20204;-77
2023/08/21 13:03:35;;;;;;;6.35;3.35;;;;;;;;;;5108581;28;20206;-77
2023/08/21 13:06:02;;;;;;;9.57;3.35;;;;;;;;;;5092736;28;20200;-77
2023/08/21 13:08:33;;;;;;;4.60;3.67;;;;;;;;;;5093588;28;20590;-78
2023/08/21 13:11:00;;;;;;;5.00;3.80;;;;;;;;;;5108730;28;20219;-77
2023/08/21 13:13:27;;;;;;;4.85;3.42;;;;;;;;;;5093216;28;20314;-77
2023/08/21 13:15:54;;;;;;;4.28;3.58;;;;;;;;;;5092465;28;20283;-77
2023/08/21 13:18:21;;;;;;;6.72;3.88;;;;;;;;;;5093454;28;20200;-77
2023/08/21 13:20:48;;;;;;;6.38;4.53;;;;;;;;;;5099441;28;20200;-77
2023/08/21 13:23:15;;;;;;;8.57;3.78;;;;;;;;;;5092556;28;20199;-77
2023/08/21 13:25:43;;;;;;;5.63;3.63;;;;;;;;;;5093513;28;20196;-78
2023/08/21 13:28:10;;;;;;;6.28;3.63;;;;;;;;;;5112994;28;20202;-78
2023/08/21 13:30:37;;;;;;;7.93;4.32;;;;;;;;;;5112296;28;20242;-77
2023/08/21 13:33:06;;;;;;;3.50;3.17;;;;;;;;;;5112936;28;20192;-78
2023/08/21 13:35:33;;;;;;;7.65;4.50;;;;;;;;;;5112985;28;20234;-77
2023/08/21 13:38:00;;;;;;;3.95;3.65;;;;;;;;;;5103956;28;20196;-77
2023/08/21 13:40:27;;;;;;;6.50;4.35;;;;;;;;;;5112488;28;20199;-77
2023/08/21 13:42:57;;;;;;;4.85;4.18;;;;;;;;;;5112240;28;20203;-78
2023/08/21 13:45:24;;;;;;;7.30;4.15;;;;;;;;;;5112043;28;20280;-77
2023/08/21 13:47:52;;;;;;;5.28;3.70;;;;;;;;;;5112453;28;20196;-77
2023/08/21 13:50:19;;;;;;;4.60;4.20;;;;;;;;;;5094506;28;20208;-78
2023/08/21 13:52:47;;;;;;;4.38;3.45;;;;;;;;;;5092251;28;20199;-78
2023/08/21 13:55:14;;;;;;;5.28;4.75;;;;;;;;;;5107887;28;20242;-77
2023/08/21 13:57:41;;;;;;;4.00;3.60;;;;;;;;;;5111681;28;20202;-77
2023/08/21 14:00:12;;;;;;;4.80;4.03;;;;;;;;;;5112642;28;20198;-77
2023/08/21 14:02:39;;;;;;;5.53;4.32;;;;;;;;;;5111071;28;20195;-78
2023/08/21 14:05:07;;;;;;;4.15;3.85;;;;;;;;;;5112479;28;20198;-77
2023/08/21 14:07:34;;;;;;;6.45;4.45;;;;;;;;;;5112459;28;20199;-77
2023/08/21 14:10:01;;;;;;;4.53;4.03;;;;;;;;;;5101104;28;20204;-78
2023/08/21 14:12:30;;;;;;;5.93;4.82;;;;;;;;;;5092021;28;20223;-78
2023/08/21 14:14:57;;;;;;;7.70;4.82;;;;;;;;;;5092664;28;20265;-77
2023/08/21 14:17:25;;;;;;;5.20;4.43;;;;;;;;;;5099818;28;20661;-78
2023/08/21 14:19:52;;;;;;;5.18;4.18;;;;;;;;;;5111099;28;20191;-77
2023/08/21 14:22:19;;;;;;;4.50;3.85;;;;;;;;;;5112135;28;20196;-77
2023/08/21 14:24:45;;;;;;;7.95;4.18;;;;;;;;;;5112312;28;20202;-78
2023/08/21 14:27:12;;;;;;;4.70;4.22;;;;;;;;;;5112392;28;20657;-77
2023/08/21 14:29:39;;;;;;;5.78;4.72;;;;;;;;;;5110860;28;20203;-78
2023/08/21 14:32:06;;;;;;;5.15;4.75;;;;;;;;;;5112341;28;20215;-77
2023/08/21 14:34:35;;;;;;;6.28;4.57;;;;;;;;;;5112108;28;20199;-77
2023/08/21 14:37:03;;;;;;;6.90;4.45;;;;;;;;;;5093156;28;20192;-78
2023/08/21 14:39:30;;;;;;;5.57;5.07;;;;;;;;;;5094744;28;20191;-77
2023/08/21 14:41:58;;;;;;;4.30;3.97;;;;;;;;;;5112598;28;20199;-77
2023/08/21 14:44:25;;;;;;;4.72;4.30;;;;;;;;;;5110529;28;20200;-77
2023/08/21 14:46:54;;;;;;;6.15;4.03;;;;;;;;;;5111223;28;20199;-77